OCN402 EDDM-LBBG
Flight info
| Callsign | OCN402 |
|---|---|
| Flight time | N/A |
| Altitude | 37000 |
| Route | KIRDI4N KIRDI DCT NIGSI DCT TONDO DCT PADGU DCT BULEN L742 ESENA |
| Aircraft | A320/M-SDE3FGHIRWY/LB1 |
Departure
| Time | 2026-05-05 11:31 |
|---|---|
| Airport | Munich Airport (EDDM) |
Arrival
| Time | N/A |
|---|---|
| Airport | Burgas Airport (LBBG) |
| Time | Latitude | Longitude | Altitude | Speed | Heading |
|---|---|---|---|---|---|
| 2026-05-05 11:11 | 48.34998 | 11.78372 | 1473 ft | 0 kts | 83° |
| 2026-05-05 11:18 | 48.34996 | 11.78352 | 1473 ft | 2 kts | 83° |
| 2026-05-05 11:19 | 48.34995 | 11.78329 | 1473 ft | 2 kts | 83° |
| 2026-05-05 11:19 | 48.34993 | 11.78307 | 1473 ft | 2 kts | 83° |
| 2026-05-05 11:19 | 48.34991 | 11.78285 | 1472 ft | 2 kts | 83° |
| 2026-05-05 11:19 | 48.34989 | 11.78263 | 1472 ft | 1 kts | 83° |
| 2026-05-05 11:20 | 48.34988 | 11.78248 | 1472 ft | 2 kts | 69° |
| 2026-05-05 11:20 | 48.34979 | 11.78231 | 1472 ft | 2 kts | 29° |
| 2026-05-05 11:20 | 48.34966 | 11.78225 | 1472 ft | 0 kts | 358° |
| 2026-05-05 11:20 | 48.34960 | 11.78227 | 1472 ft | 1 kts | 351° |
| 2026-05-05 11:21 | 48.34958 | 11.78227 | 1472 ft | 0 kts | 353° |
| 2026-05-05 11:22 | 48.34968 | 11.78225 | 1472 ft | 3 kts | 353° |
| 2026-05-05 11:22 | 48.35012 | 11.78217 | 1472 ft | 9 kts | 353° |
| 2026-05-05 11:22 | 48.35096 | 11.78203 | 1471 ft | 14 kts | 354° |
| 2026-05-05 11:23 | 48.35217 | 11.78183 | 1469 ft | 20 kts | 353° |
| 2026-05-05 11:23 | 48.35371 | 11.78157 | 1469 ft | 23 kts | 353° |
| 2026-05-05 11:23 | 48.35537 | 11.78127 | 1473 ft | 24 kts | 353° |
| 2026-05-05 11:23 | 48.35701 | 11.78098 | 1471 ft | 24 kts | 354° |
| 2026-05-05 11:24 | 48.35793 | 11.78014 | 1466 ft | 15 kts | 274° |
| 2026-05-05 11:24 | 48.35821 | 11.77866 | 1461 ft | 17 kts | 345° |
| 2026-05-05 11:24 | 48.35944 | 11.77843 | 1460 ft | 18 kts | 3° |
| 2026-05-05 11:24 | 48.35993 | 11.77990 | 1462 ft | 17 kts | 84° |
| 2026-05-05 11:25 | 48.36008 | 11.78187 | 1464 ft | 21 kts | 83° |
| 2026-05-05 11:25 | 48.36026 | 11.78427 | 1468 ft | 24 kts | 84° |
| 2026-05-05 11:25 | 48.36046 | 11.78698 | 1467 ft | 28 kts | 83° |
| 2026-05-05 11:25 | 48.36069 | 11.78994 | 1467 ft | 28 kts | 83° |
| 2026-05-05 11:26 | 48.36093 | 11.79285 | 1468 ft | 27 kts | 83° |
| 2026-05-05 11:26 | 48.36114 | 11.79573 | 1464 ft | 29 kts | 84° |
| 2026-05-05 11:26 | 48.36140 | 11.79916 | 1458 ft | 35 kts | 84° |
| 2026-05-05 11:26 | 48.36168 | 11.80282 | 1454 ft | 35 kts | 83° |
| 2026-05-05 11:27 | 48.36196 | 11.80640 | 1452 ft | 33 kts | 83° |
| 2026-05-05 11:27 | 48.36222 | 11.80984 | 1451 ft | 32 kts | 83° |
| 2026-05-05 11:27 | 48.36247 | 11.81309 | 1451 ft | 30 kts | 84° |
| 2026-05-05 11:27 | 48.36270 | 11.81610 | 1452 ft | 28 kts | 83° |
| 2026-05-05 11:28 | 48.36293 | 11.81893 | 1452 ft | 22 kts | 72° |
| 2026-05-05 11:28 | 48.36402 | 11.82008 | 1451 ft | 19 kts | 5° |
| 2026-05-05 11:28 | 48.36539 | 11.81986 | 1450 ft | 19 kts | 353° |
| 2026-05-05 11:28 | 48.36647 | 11.81969 | 1449 ft | 11 kts | 353° |
| 2026-05-05 11:29 | 48.36671 | 11.81892 | 1450 ft | 0 kts | 261° |
| 2026-05-05 11:30 | 48.36669 | 11.81865 | 1450 ft | 13 kts | 262° |
| 2026-05-05 11:30 | 48.36626 | 11.81304 | 1451 ft | 92 kts | 264° |
| 2026-05-05 11:31 | 48.36523 | 11.79997 | 1456 ft | 156 kts | 264° |
| 2026-05-05 11:31 | 48.36393 | 11.78234 | 1857 ft | 176 kts | 263° |
| 2026-05-05 11:31 | 48.36249 | 11.76431 | 2606 ft | 178 kts | 264° |
| 2026-05-05 11:31 | 48.36097 | 11.74605 | 3343 ft | 179 kts | 263° |
| 2026-05-05 11:32 | 48.35834 | 11.72741 | 3793 ft | 191 kts | 244° |
| 2026-05-05 11:32 | 48.34917 | 11.71262 | 4169 ft | 207 kts | 207° |
| 2026-05-05 11:32 | 48.33470 | 11.70819 | 4585 ft | 221 kts | 179° |
| 2026-05-05 11:32 | 48.31917 | 11.70829 | 5135 ft | 232 kts | 179° |
| 2026-05-05 11:33 | 48.30269 | 11.70819 | 5825 ft | 239 kts | 179° |
| 2026-05-05 11:33 | 48.28671 | 11.71116 | 6765 ft | 233 kts | 161° |
| 2026-05-05 11:33 | 48.27230 | 11.72220 | 7433 ft | 241 kts | 147° |
| 2026-05-05 11:33 | 48.25795 | 11.73686 | 7932 ft | 259 kts | 146° |
| 2026-05-05 11:34 | 48.24270 | 11.75278 | 8465 ft | 275 kts | 146° |
| 2026-05-05 11:34 | 48.22699 | 11.76904 | 9247 ft | 281 kts | 147° |
| 2026-05-05 11:34 | 48.21091 | 11.78550 | 10159 ft | 282 kts | 147° |
| 2026-05-05 11:34 | 48.19520 | 11.80316 | 10990 ft | 287 kts | 135° |
| 2026-05-05 11:35 | 48.18480 | 11.82887 | 11764 ft | 297 kts | 109° |
| 2026-05-05 11:35 | 48.18266 | 11.85975 | 12531 ft | 306 kts | 87° |
| 2026-05-05 11:35 | 48.18500 | 11.89113 | 13268 ft | 311 kts | 85° |
| 2026-05-05 11:35 | 48.18755 | 11.92347 | 13990 ft | 317 kts | 85° |
| 2026-05-05 11:36 | 48.19008 | 11.95651 | 14737 ft | 320 kts | 86° |
| 2026-05-05 11:36 | 48.19253 | 11.98938 | 15460 ft | 323 kts | 86° |
| 2026-05-05 11:36 | 48.19498 | 12.02316 | 16187 ft | 326 kts | 87° |
| 2026-05-05 11:36 | 48.19738 | 12.05701 | 16904 ft | 329 kts | 87° |
| 2026-05-05 11:37 | 48.19975 | 12.09071 | 17589 ft | 332 kts | 87° |
| 2026-05-05 11:37 | 48.20216 | 12.12523 | 18268 ft | 335 kts | 87° |
| 2026-05-05 11:37 | 48.20455 | 12.16004 | 18918 ft | 339 kts | 87° |
| 2026-05-05 11:37 | 48.20696 | 12.19524 | 19544 ft | 343 kts | 86° |
| 2026-05-05 11:38 | 48.20937 | 12.23044 | 20156 ft | 346 kts | 86° |
| 2026-05-05 11:38 | 48.21183 | 12.26656 | 20776 ft | 350 kts | 86° |
| 2026-05-05 11:38 | 48.21428 | 12.30252 | 21378 ft | 353 kts | 86° |
| 2026-05-05 11:38 | 48.21677 | 12.33920 | 21981 ft | 356 kts | 86° |
| 2026-05-05 11:39 | 48.21926 | 12.37625 | 22581 ft | 359 kts | 86° |
| 2026-05-05 11:39 | 48.22177 | 12.41371 | 23170 ft | 362 kts | 86° |
| 2026-05-05 11:39 | 48.22426 | 12.45090 | 23739 ft | 365 kts | 86° |
| 2026-05-05 11:39 | 48.22678 | 12.48893 | 24296 ft | 369 kts | 86° |
| 2026-05-05 11:40 | 48.22924 | 12.52738 | 24839 ft | 372 kts | 87° |
| 2026-05-05 11:40 | 48.22999 | 12.56575 | 25337 ft | 374 kts | 93° |
| 2026-05-05 11:40 | 48.22825 | 12.60492 | 25686 ft | 381 kts | 98° |
| 2026-05-05 11:40 | 48.22469 | 12.64476 | 25899 ft | 391 kts | 100° |
| 2026-05-05 11:41 | 48.22071 | 12.68535 | 26105 ft | 401 kts | 101° |
| 2026-05-05 11:41 | 48.21663 | 12.72710 | 26405 ft | 409 kts | 101° |
| 2026-05-05 11:41 | 48.21255 | 12.76928 | 26832 ft | 412 kts | 101° |
| 2026-05-05 11:41 | 48.20715 | 12.81138 | 27273 ft | 414 kts | 105° |
| 2026-05-05 11:42 | 48.19963 | 12.85294 | 27695 ft | 415 kts | 110° |
| 2026-05-05 11:42 | 48.19016 | 12.89382 | 28103 ft | 418 kts | 112° |
| 2026-05-05 11:42 | 48.18018 | 12.93465 | 28504 ft | 420 kts | 112° |
| 2026-05-05 11:42 | 48.17006 | 12.97572 | 28893 ft | 423 kts | 112° |
| 2026-05-05 11:43 | 48.15986 | 13.01717 | 29270 ft | 426 kts | 112° |
| 2026-05-05 11:43 | 48.14959 | 13.05881 | 29641 ft | 429 kts | 112° |
| 2026-05-05 11:43 | 48.13943 | 13.10010 | 29983 ft | 431 kts | 113° |
| 2026-05-05 11:43 | 48.12904 | 13.14221 | 30330 ft | 434 kts | 112° |
| 2026-05-05 11:44 | 48.11859 | 13.18451 | 30662 ft | 437 kts | 112° |
| 2026-05-05 11:44 | 48.10806 | 13.22710 | 30981 ft | 439 kts | 112° |
| 2026-05-05 11:44 | 48.09746 | 13.26993 | 31277 ft | 442 kts | 112° |
| 2026-05-05 11:44 | 48.08677 | 13.31299 | 31575 ft | 445 kts | 112° |
| 2026-05-05 11:45 | 48.07601 | 13.35631 | 31874 ft | 447 kts | 112° |
| 2026-05-05 11:45 | 48.06515 | 13.39989 | 32161 ft | 449 kts | 112° |
| 2026-05-05 11:45 | 48.05424 | 13.44360 | 32438 ft | 452 kts | 112° |
| 2026-05-05 11:45 | 48.04326 | 13.48753 | 32700 ft | 454 kts | 112° |
| 2026-05-05 11:46 | 48.03219 | 13.53172 | 33000 ft | 455 kts | 112° |
| 2026-05-05 11:46 | 48.02114 | 13.57579 | 33390 ft | 454 kts | 112° |
| 2026-05-05 11:46 | 48.01024 | 13.61917 | 33739 ft | 454 kts | 112° |
| 2026-05-05 11:46 | 47.99910 | 13.66341 | 34090 ft | 453 kts | 113° |
| 2026-05-05 11:47 | 47.98805 | 13.70721 | 34444 ft | 452 kts | 113° |
| 2026-05-05 11:47 | 47.97699 | 13.75097 | 34780 ft | 452 kts | 113° |
| 2026-05-05 11:47 | 47.96593 | 13.79463 | 35054 ft | 451 kts | 113° |
| 2026-05-05 11:47 | 47.95484 | 13.83824 | 35296 ft | 452 kts | 113° |
| 2026-05-05 11:48 | 47.93254 | 13.92581 | 35694 ft | 454 kts | 113° |
| 2026-05-05 11:48 | 47.92135 | 13.96965 | 35899 ft | 454 kts | 113° |
| 2026-05-05 11:48 | 47.91025 | 14.01304 | 36082 ft | 455 kts | 113° |
| 2026-05-05 11:49 | 47.89900 | 14.05689 | 36268 ft | 455 kts | 113° |
| 2026-05-05 11:49 | 47.88768 | 14.10098 | 36447 ft | 456 kts | 113° |
| 2026-05-05 11:49 | 47.87637 | 14.14495 | 36621 ft | 456 kts | 113° |
| 2026-05-05 11:49 | 47.86504 | 14.18893 | 36758 ft | 457 kts | 113° |
| 2026-05-05 11:50 | 47.84220 | 14.27724 | 36831 ft | 459 kts | 113° |
| 2026-05-05 11:50 | 47.81928 | 14.36558 | 36826 ft | 460 kts | 112° |
| 2026-05-05 11:51 | 47.79625 | 14.45403 | 36846 ft | 460 kts | 112° |
| 2026-05-05 11:51 | 47.77328 | 14.54182 | 36837 ft | 461 kts | 112° |
| 2026-05-05 11:52 | 47.75006 | 14.63029 | 36867 ft | 461 kts | 112° |
| 2026-05-05 11:52 | 47.72677 | 14.71872 | 36883 ft | 460 kts | 113° |
| 2026-05-05 11:53 | 47.70345 | 14.80688 | 36897 ft | 460 kts | 114° |
| 2026-05-05 11:53 | 47.68006 | 14.89496 | 36903 ft | 460 kts | 113° |
| 2026-05-05 11:54 | 47.65658 | 14.98306 | 36897 ft | 461 kts | 113° |
| 2026-05-05 11:54 | 47.63316 | 15.07056 | 36904 ft | 460 kts | 113° |
| 2026-05-05 11:55 | 47.60951 | 15.15861 | 36905 ft | 460 kts | 113° |
| 2026-05-05 11:55 | 47.58587 | 15.24634 | 36904 ft | 461 kts | 113° |
| 2026-05-05 11:56 | 47.56207 | 15.33436 | 36904 ft | 461 kts | 113° |
| 2026-05-05 11:56 | 47.53836 | 15.42165 | 36917 ft | 462 kts | 113° |
| 2026-05-05 11:57 | 47.51442 | 15.50953 | 36916 ft | 461 kts | 113° |
| 2026-05-05 11:57 | 47.49045 | 15.59713 | 36904 ft | 461 kts | 113° |
| 2026-05-05 11:58 | 47.46640 | 15.68472 | 36903 ft | 461 kts | 114° |
| 2026-05-05 11:58 | 47.44233 | 15.77210 | 36899 ft | 461 kts | 114° |
| 2026-05-05 11:59 | 47.41819 | 15.85943 | 36904 ft | 461 kts | 114° |
| 2026-05-05 11:59 | 47.39396 | 15.94671 | 36895 ft | 461 kts | 114° |
| 2026-05-05 12:00 | 47.36906 | 16.03308 | 36887 ft | 461 kts | 117° |
| 2026-05-05 12:00 | 47.33905 | 16.11638 | 36885 ft | 461 kts | 120° |
| 2026-05-05 12:01 | 47.30804 | 16.19853 | 36872 ft | 460 kts | 120° |
| 2026-05-05 12:01 | 47.27706 | 16.28048 | 36877 ft | 460 kts | 120° |
| 2026-05-05 12:02 | 47.24603 | 16.36244 | 36878 ft | 459 kts | 120° |
| 2026-05-05 12:02 | 47.21502 | 16.44418 | 36889 ft | 459 kts | 120° |
| 2026-05-05 12:03 | 47.18394 | 16.52582 | 36882 ft | 459 kts | 120° |
| 2026-05-05 12:03 | 47.15281 | 16.60734 | 36893 ft | 459 kts | 120° |
| 2026-05-05 12:04 | 47.12158 | 16.68891 | 36906 ft | 459 kts | 121° |
| 2026-05-05 12:04 | 47.09037 | 16.77014 | 36898 ft | 458 kts | 121° |
| 2026-05-05 12:05 | 47.05935 | 16.85066 | 36906 ft | 458 kts | 121° |
| 2026-05-05 12:05 | 47.02808 | 16.93158 | 36910 ft | 458 kts | 121° |
| 2026-05-05 12:06 | 46.99669 | 17.01257 | 36907 ft | 457 kts | 121° |
| 2026-05-05 12:06 | 46.96535 | 17.09321 | 36910 ft | 457 kts | 121° |
| 2026-05-05 12:07 | 46.93397 | 17.17367 | 36908 ft | 457 kts | 121° |
| 2026-05-05 12:07 | 46.90253 | 17.25406 | 36905 ft | 457 kts | 121° |
| 2026-05-05 12:08 | 46.87098 | 17.33450 | 36909 ft | 457 kts | 121° |
| 2026-05-05 12:08 | 46.83942 | 17.41475 | 36906 ft | 457 kts | 121° |
| 2026-05-05 12:09 | 46.80782 | 17.49487 | 36914 ft | 457 kts | 121° |
| 2026-05-05 12:09 | 46.77614 | 17.57492 | 36912 ft | 457 kts | 121° |
| 2026-05-05 12:10 | 46.74438 | 17.65497 | 36921 ft | 458 kts | 121° |
| 2026-05-05 12:10 | 46.71270 | 17.73455 | 36923 ft | 458 kts | 121° |
| 2026-05-05 12:11 | 46.68077 | 17.81451 | 36929 ft | 458 kts | 121° |
| 2026-05-05 12:11 | 46.64878 | 17.89447 | 36937 ft | 459 kts | 121° |
| 2026-05-05 12:12 | 46.61668 | 17.97444 | 36940 ft | 459 kts | 122° |
| 2026-05-05 12:12 | 46.58448 | 18.05438 | 36940 ft | 458 kts | 121° |
| 2026-05-05 12:13 | 46.55228 | 18.13410 | 36945 ft | 458 kts | 121° |
| 2026-05-05 12:13 | 46.52007 | 18.21362 | 36951 ft | 458 kts | 121° |
| 2026-05-05 12:14 | 46.48777 | 18.29310 | 36954 ft | 458 kts | 121° |
| 2026-05-05 12:14 | 46.45567 | 18.37193 | 36958 ft | 459 kts | 121° |
| 2026-05-05 12:15 | 46.42315 | 18.45153 | 36959 ft | 459 kts | 121° |
| 2026-05-05 12:15 | 46.39067 | 18.53082 | 36961 ft | 459 kts | 121° |
| 2026-05-05 12:16 | 46.35808 | 18.61013 | 36961 ft | 460 kts | 121° |
| 2026-05-05 12:16 | 46.32539 | 18.68947 | 36960 ft | 459 kts | 122° |
| 2026-05-05 12:17 | 46.29271 | 18.76855 | 36959 ft | 459 kts | 122° |
| 2026-05-05 12:17 | 46.26001 | 18.84742 | 36961 ft | 459 kts | 122° |
| 2026-05-05 12:18 | 46.22724 | 18.92628 | 36961 ft | 459 kts | 122° |
| 2026-05-05 12:18 | 46.19461 | 19.00458 | 36959 ft | 460 kts | 122° |
| 2026-05-05 12:19 | 46.16167 | 19.08338 | 36963 ft | 460 kts | 122° |
| 2026-05-05 12:19 | 46.12870 | 19.16206 | 36967 ft | 460 kts | 122° |
| 2026-05-05 12:20 | 46.09566 | 19.24072 | 36970 ft | 460 kts | 122° |
| 2026-05-05 12:20 | 46.06255 | 19.31923 | 36972 ft | 460 kts | 122° |
| 2026-05-05 12:21 | 46.03104 | 19.39921 | 36973 ft | 461 kts | 118° |
| 2026-05-05 12:21 | 46.00107 | 19.48049 | 36974 ft | 462 kts | 118° |
| 2026-05-05 12:22 | 45.97105 | 19.56185 | 36973 ft | 461 kts | 118° |
| 2026-05-05 12:22 | 45.94101 | 19.64298 | 36974 ft | 462 kts | 118° |
| 2026-05-05 12:23 | 45.91083 | 19.72422 | 36974 ft | 462 kts | 119° |
| 2026-05-05 12:23 | 45.88070 | 19.80510 | 36980 ft | 462 kts | 118° |
| 2026-05-05 12:24 | 45.85045 | 19.88604 | 36983 ft | 462 kts | 118° |
| 2026-05-05 12:24 | 45.82013 | 19.96691 | 36984 ft | 462 kts | 118° |
| 2026-05-05 12:25 | 45.78971 | 20.04780 | 36988 ft | 462 kts | 118° |
| 2026-05-05 12:25 | 45.75929 | 20.12844 | 36988 ft | 462 kts | 118° |
| 2026-05-05 12:26 | 45.72884 | 20.20895 | 36990 ft | 462 kts | 118° |
| 2026-05-05 12:26 | 45.69834 | 20.28938 | 36986 ft | 462 kts | 118° |
| 2026-05-05 12:27 | 45.66778 | 20.36968 | 36978 ft | 462 kts | 118° |
| 2026-05-05 12:27 | 45.63711 | 20.45004 | 36977 ft | 462 kts | 118° |
| 2026-05-05 12:28 | 45.60636 | 20.53038 | 36978 ft | 463 kts | 118° |
| 2026-05-05 12:28 | 45.57554 | 20.61068 | 36981 ft | 463 kts | 118° |
| 2026-05-05 12:29 | 45.54464 | 20.69096 | 36977 ft | 463 kts | 118° |
| 2026-05-05 12:29 | 45.51370 | 20.77111 | 36971 ft | 463 kts | 118° |
| 2026-05-05 12:30 | 45.48265 | 20.85130 | 36966 ft | 463 kts | 118° |
| 2026-05-05 12:30 | 45.45156 | 20.93135 | 36969 ft | 463 kts | 118° |
| 2026-05-05 12:31 | 45.42043 | 21.01130 | 36971 ft | 463 kts | 118° |
| 2026-05-05 12:31 | 45.38926 | 21.09106 | 36982 ft | 463 kts | 118° |
| 2026-05-05 12:32 | 45.35803 | 21.17081 | 36986 ft | 464 kts | 118° |
| 2026-05-05 12:32 | 45.32671 | 21.25054 | 36991 ft | 464 kts | 118° |
| 2026-05-05 12:33 | 45.29533 | 21.33016 | 36994 ft | 464 kts | 118° |
| 2026-05-05 12:33 | 45.26390 | 21.40973 | 36998 ft | 464 kts | 118° |
| 2026-05-05 12:34 | 45.23239 | 21.48925 | 37001 ft | 464 kts | 118° |
| 2026-05-05 12:34 | 45.20080 | 21.56874 | 37000 ft | 464 kts | 118° |
| 2026-05-05 12:35 | 45.16916 | 21.64816 | 37009 ft | 465 kts | 118° |
| 2026-05-05 12:35 | 45.13736 | 21.72775 | 37017 ft | 465 kts | 118° |
| 2026-05-05 12:36 | 45.10554 | 21.80712 | 37026 ft | 464 kts | 118° |
| 2026-05-05 12:36 | 45.07397 | 21.88566 | 37039 ft | 464 kts | 118° |